Time;durP1;ratioP1;P1;durP2;ratioP2;P2;SDS_P1;SDS_P2;PMS_P1;PMS_P2;Temp;Humidity;BMP_temperature;BMP_pressure;BME280_temperature;BME280_humidity;BME280_pressure;Samples;Min_cycle;Max_cycle;Signal;HPM_P1;HPM_P2
2022/06/14 00:00:57;;;;;;;10.13;9.82;;;14.70;99.90;;;;;;6317853;22;20300;-80
2022/06/14 00:03:28;;;;;;;10.45;10.15;;;14.60;99.90;;;;;;6318775;22;20261;-79
2022/06/14 00:05:56;;;;;;;10.20;9.90;;;14.60;99.90;;;;;;6318992;22;20193;-80
2022/06/14 00:08:27;;;;;;;10.30;10.00;;;14.60;99.90;;;;;;6320862;22;20287;-79
2022/06/14 00:10:56;;;;;;;10.30;10.00;;;14.50;99.90;;;;;;6319375;22;20280;-79
2022/06/14 00:13:25;;;;;;;10.27;9.98;;;14.40;99.90;;;;;;6320302;22;20263;-79
2022/06/14 00:15:54;;;;;;;10.07;9.77;;;14.30;99.90;;;;;;6320964;22;20201;-81
2022/06/14 00:18:21;;;;;;;10.00;9.70;;;14.30;99.90;;;;;;6321036;22;20239;-81
2022/06/14 00:20:50;;;;;;;10.00;9.70;;;14.30;99.90;;;;;;6320066;22;20885;-80
2022/06/14 00:23:18;;;;;;;9.85;9.55;;;14.30;99.90;;;;;;6320084;22;20204;-81
2022/06/14 00:25:51;;;;;;;9.88;9.57;;;14.30;99.90;;;;;;6319541;22;20203;-80
2022/06/14 00:28:19;;;;;;;9.85;9.55;;;14.30;99.90;;;;;;6319985;22;20204;-80
2022/06/14 00:30:50;;;;;;;10.10;9.80;;;14.30;99.90;;;;;;6319500;22;20236;-80
2022/06/14 00:33:18;;;;;;;10.03;9.73;;;14.30;99.90;;;;;;6320189;22;20244;-80
2022/06/14 00:35:46;;;;;;;9.80;9.50;;;14.20;99.90;;;;;;6319462;22;20251;-80
2022/06/14 00:38:17;;;;;;;9.80;9.50;;;14.20;99.90;;;;;;6320300;22;20192;-80
2022/06/14 00:40:55;;;;;;;9.80;9.50;;;14.30;99.90;;;;;;6318982;22;20233;-80
2022/06/14 00:43:23;;;;;;;9.80;9.50;;;14.20;99.90;;;;;;6319269;22;20200;-80
2022/06/14 00:46:16;;;;;;;10.00;9.70;;;14.20;99.90;;;;;;6318648;22;20247;-80
2022/06/14 00:48:50;;;;;;;10.00;9.70;;;14.30;99.90;;;;;;6318787;22;20185;-79
2022/06/14 00:51:23;;;;;;;9.88;9.57;;;14.30;99.90;;;;;;6319574;22;20253;-80
2022/06/14 00:53:57;;;;;;;10.17;9.87;;;14.30;99.90;;;;;;6319871;22;20194;-80
2022/06/14 00:56:33;;;;;;;10.00;9.70;;;14.30;99.90;;;;;;6319186;22;20196;-79
2022/06/14 00:59:04;;;;;;;9.83;9.53;;;14.30;99.90;;;;;;6319114;22;20215;-79
2022/06/14 01:01:36;;;;;;;9.75;9.45;;;14.30;99.90;;;;;;6319108;22;20195;-81
2022/06/14 01:04:10;;;;;;;9.80;9.50;;;14.30;99.90;;;;;;6319260;22;20228;-80
2022/06/14 01:06:48;;;;;;;9.90;9.60;;;14.30;99.90;;;;;;6318708;22;20201;-79
2022/06/14 01:09:19;;;;;;;9.90;9.60;;;14.30;99.90;;;;;;6321986;22;20192;-79
2022/06/14 01:11:52;;;;;;;10.30;10.00;;;14.30;99.90;;;;;;6320370;22;20193;-79
2022/06/14 01:14:25;;;;;;;10.18;9.88;;;14.30;99.90;;;;;;6319489;22;20193;-80
2022/06/14 01:16:53;;;;;;;9.80;9.50;;;14.20;99.90;;;;;;6319837;22;20204;-80
2022/06/14 01:19:24;;;;;;;9.90;9.60;;;14.10;99.90;;;;;;6326708;22;20236;-78
2022/06/14 01:22:38;;;;;;;9.80;9.50;;;14.10;99.90;;;;;;6340019;22;20192;-80
2022/06/14 01:25:09;;;;;;;9.83;9.53;;;14.10;99.90;;;;;;6314551;22;20207;-79
2022/06/14 01:27:39;;;;;;;9.70;9.40;;;14.10;99.90;;;;;;6326246;22;20220;-80
2022/06/14 01:30:13;;;;;;;10.00;9.70;;;14.10;99.90;;;;;;6327712;22;20208;-80
2022/06/14 01:32:46;;;;;;;10.00;9.70;;;14.00;99.90;;;;;;6322892;22;20181;-80
2022/06/14 01:35:18;;;;;;;9.83;9.53;;;14.00;99.90;;;;;;6322106;22;20208;-80
2022/06/14 01:37:50;;;;;;;9.97;9.67;;;14.00;99.90;;;;;;6322026;22;20227;-79
2022/06/14 01:40:20;;;;;;;9.80;9.50;;;13.90;99.90;;;;;;6321382;22;20247;-79
2022/06/14 01:43:21;;;;;;;9.93;9.63;;;13.90;99.90;;;;;;6320754;22;20260;-79
2022/06/14 01:46:00;;;;;;;10.10;9.80;;;13.80;99.90;;;;;;6321499;22;20196;-80
2022/06/14 01:48:32;;;;;;;9.93;9.63;;;13.80;99.90;;;;;;6322848;22;20544;-80
2022/06/14 01:54:05;;;;;;;10.07;9.77;;;13.70;99.90;;;;;;6323544;22;20208;-80
2022/06/14 01:56:43;;;;;;;10.07;9.77;;;13.60;99.90;;;;;;6323615;22;20204;-80
2022/06/14 01:59:20;;;;;;;10.00;9.70;;;13.60;99.90;;;;;;6323255;22;20193;-80
2022/06/14 02:01:59;;;;;;;10.03;9.73;;;13.60;99.90;;;;;;6323950;22;20279;-80
2022/06/14 02:04:38;;;;;;;10.20;9.90;;;13.60;99.90;;;;;;6323919;22;20287;-80
2022/06/14 02:07:17;;;;;;;10.00;9.70;;;13.60;99.90;;;;;;6323828;22;20197;-80
2022/06/14 02:09:56;;;;;;;9.77;9.47;;;13.50;99.90;;;;;;6325952;22;20212;-80
2022/06/14 02:12:39;;;;;;;10.10;9.80;;;13.40;99.90;;;;;;6324375;22;20193;-80
2022/06/14 02:15:18;;;;;;;10.07;9.77;;;13.40;99.90;;;;;;6324373;22;20192;-80
2022/06/14 02:17:51;;;;;;;9.90;9.60;;;13.30;99.90;;;;;;6325363;22;20211;-80
2022/06/14 02:20:25;;;;;;;9.80;9.50;;;13.20;99.90;;;;;;6330446;22;20248;-80
2022/06/14 02:23:00;;;;;;;9.90;9.60;;;13.20;99.90;;;;;;6338508;22;20213;-80
2022/06/14 02:25:33;;;;;;;10.10;9.80;;;13.20;99.90;;;;;;6338521;22;20243;-80
2022/06/14 02:28:09;;;;;;;9.90;9.60;;;13.20;99.90;;;;;;6338958;22;20201;-80
2022/06/14 02:30:43;;;;;;;9.97;9.67;;;13.20;99.90;;;;;;6334655;22;20184;-80
2022/06/14 02:33:17;;;;;;;9.83;9.53;;;13.20;99.90;;;;;;6337570;22;20204;-80
2022/06/14 02:35:52;;;;;;;9.63;9.33;;;13.10;99.90;;;;;;6337325;22;20183;-81
2022/06/14 02:38:26;;;;;;;9.40;9.10;;;13.10;99.90;;;;;;6339217;22;20244;-80
2022/06/14 02:41:00;;;;;;;9.57;9.27;;;13.10;99.90;;;;;;6339990;22;20185;-80
2022/06/14 02:43:36;;;;;;;10.23;9.93;;;13.10;99.90;;;;;;6339217;22;20224;-81
2022/06/14 02:46:08;;;;;;;10.40;10.10;;;13.00;99.90;;;;;;6327744;22;20195;-79
2022/06/14 02:48:43;;;;;;;10.60;10.30;;;13.00;99.90;;;;;;6327582;22;20252;-80
2022/06/14 02:51:17;;;;;;;10.73;10.43;;;13.00;99.90;;;;;;6328281;22;20208;-79
2022/06/14 02:53:51;;;;;;;11.13;10.83;;;13.00;99.90;;;;;;6328620;22;20257;-80
2022/06/14 02:56:26;;;;;;;10.80;10.50;;;13.00;99.90;;;;;;6328693;22;20231;-80
2022/06/14 02:59:00;;;;;;;11.20;10.90;;;13.10;99.90;;;;;;6328686;22;20248;-80
2022/06/14 03:01:36;;;;;;;10.90;10.60;;;13.00;99.90;;;;;;6328908;22;20218;-80
2022/06/14 03:04:09;;;;;;;11.00;10.70;;;13.00;99.90;;;;;;6328315;22;20201;-80
2022/06/14 03:06:44;;;;;;;11.00;10.70;;;13.00;99.90;;;;;;6328102;22;20288;-80
2022/06/14 03:09:16;;;;;;;10.67;10.37;;;12.90;99.90;;;;;;6320852;22;20208;-80
2022/06/14 03:11:55;;;;;;;10.80;10.50;;;12.90;99.90;;;;;;6319516;22;20192;-79
2022/06/14 03:14:34;;;;;;;10.60;10.30;;;12.90;99.90;;;;;;6317978;22;20662;-80
2022/06/14 03:17:15;;;;;;;10.57;10.27;;;12.80;99.90;;;;;;6318438;22;20204;-80
2022/06/14 03:19:49;;;;;;;10.57;10.27;;;12.80;99.90;;;;;;6318475;22;20189;-80
2022/06/14 03:22:24;;;;;;;10.90;10.60;;;12.80;99.90;;;;;;6318305;22;20219;-80
2022/06/14 03:25:00;;;;;;;10.43;10.13;;;12.80;99.90;;;;;;6317936;22;20192;-80
2022/06/14 03:27:37;;;;;;;10.60;10.30;;;12.80;99.90;;;;;;6318534;22;20212;-80
2022/06/14 03:30:11;;;;;;;10.43;10.13;;;12.90;99.90;;;;;;6317895;22;20256;-80
2022/06/14 03:32:45;;;;;;;10.40;10.10;;;12.90;99.90;;;;;;6318382;22;20227;-80
2022/06/14 03:35:25;;;;;;;10.70;10.40;;;12.90;99.90;;;;;;6317792;22;20232;-80
2022/06/14 03:37:53;;;;;;;10.70;10.40;;;12.90;99.90;;;;;;6317911;22;20215;-79
2022/06/14 03:40:23;;;;;;;10.50;10.20;;;12.90;99.90;;;;;;6318604;22;20280;-80
2022/06/14 03:42:51;;;;;;;10.80;10.50;;;12.90;99.90;;;;;;6318569;22;20280;-80
2022/06/14 03:45:39;;;;;;;10.83;10.53;;;12.90;99.90;;;;;;6317448;22;20209;-80
2022/06/14 03:48:08;;;;;;;10.97;10.67;;;12.90;99.90;;;;;;6317837;22;20208;-80
2022/06/14 03:50:45;;;;;;;10.57;10.27;;;13.00;99.90;;;;;;6319286;22;20197;-80
2022/06/14 03:53:29;;;;;;;10.90;10.60;;;13.00;99.90;;;;;;6319189;22;20216;-80
2022/06/14 03:56:31;;;;;;;10.50;10.20;;;13.10;99.90;;;;;;6317763;22;20227;-80
2022/06/14 03:59:29;;;;;;;10.63;10.33;;;13.10;99.90;;;;;;6318303;22;20247;-80
2022/06/14 04:02:08;;;;;;;10.90;10.60;;;13.20;99.90;;;;;;6317499;22;20281;-79
2022/06/14 04:04:50;;;;;;;11.03;10.73;;;13.30;99.90;;;;;;6317638;22;20242;-80
2022/06/14 04:07:38;;;;;;;11.17;10.87;;;13.30;99.90;;;;;;6317419;22;20204;-80
2022/06/14 04:10:14;;;;;;;11.00;10.70;;;13.40;99.90;;;;;;6317851;22;20193;-80
2022/06/14 04:12:51;;;;;;;11.00;10.70;;;13.40;99.90;;;;;;6317849;22;20189;-79
2022/06/14 04:15:34;;;;;;;11.10;10.80;;;13.50;99.90;;;;;;6318081;22;20279;-79
2022/06/14 04:18:39;;;;;;;10.93;10.63;;;13.60;99.90;;;;;;6316887;22;20275;-80
2022/06/14 04:21:26;;;;;;;11.00;10.70;;;13.70;99.90;;;;;;6316935;22;20217;-79
2022/06/14 04:24:01;;;;;;;10.90;10.60;;;13.70;99.90;;;;;;6319256;22;20197;-80
2022/06/14 04:26:37;;;;;;;11.07;10.77;;;13.80;99.90;;;;;;6317619;22;20201;-79
2022/06/14 04:29:14;;;;;;;10.90;10.60;;;13.80;99.90;;;;;;6317828;22;20220;-79
2022/06/14 04:31:47;;;;;;;10.63;10.32;;;13.90;99.90;;;;;;6318014;22;20200;-79
2022/06/14 04:34:21;;;;;;;10.80;10.50;;;13.90;99.90;;;;;;6318256;22;20199;-80
2022/06/14 04:36:58;;;;;;;10.87;10.57;;;13.90;99.90;;;;;;6318327;22;20204;-79
2022/06/14 04:39:32;;;;;;;11.05;10.75;;;14.00;99.90;;;;;;6318338;22;20185;-79
2022/06/14 04:42:06;;;;;;;11.00;10.70;;;13.90;99.90;;;;;;6317810;22;20197;-79
2022/06/14 04:44:40;;;;;;;11.02;10.73;;;14.10;99.90;;;;;;6317990;22;20208;-79
2022/06/14 04:47:14;;;;;;;10.95;10.65;;;14.10;99.90;;;;;;6317695;22;20288;-79
2022/06/14 04:49:49;;;;;;;10.60;10.30;;;14.20;99.90;;;;;;6317921;22;20248;-79
2022/06/14 04:52:22;;;;;;;10.80;10.50;;;14.20;99.90;;;;;;6318759;22;20208;-79
2022/06/14 04:54:55;;;;;;;10.48;10.18;;;14.30;99.90;;;;;;6318722;22;20215;-79
2022/06/14 04:57:30;;;;;;;10.70;10.40;;;14.40;99.90;;;;;;6318587;22;20196;-79
2022/06/14 05:00:05;;;;;;;11.07;10.77;;;14.50;99.90;;;;;;6319748;22;20180;-79
2022/06/14 05:02:36;;;;;;;10.80;10.50;;;14.50;99.90;;;;;;6322363;22;20187;-79
2022/06/14 05:05:10;;;;;;;11.20;10.90;;;14.70;99.90;;;;;;6326348;22;20201;-80
2022/06/14 05:07:45;;;;;;;11.07;10.77;;;14.70;99.90;;;;;;6324942;22;20215;-80
2022/06/14 05:10:19;;;;;;;11.02;10.73;;;14.80;99.90;;;;;;6321157;22;20224;-79
2022/06/14 05:12:53;;;;;;;11.13;10.82;;;14.80;99.90;;;;;;6319384;22;20201;-80
2022/06/14 05:15:27;;;;;;;10.93;10.63;;;14.80;99.90;;;;;;6319770;22;20223;-79
2022/06/14 05:18:02;;;;;;;11.02;10.73;;;14.80;99.90;;;;;;6342759;22;20298;-80
2022/06/14 05:20:38;;;;;;;11.30;11.00;;;14.90;99.90;;;;;;6355755;22;20195;-81
2022/06/14 05:23:13;;;;;;;10.93;10.63;;;14.90;99.90;;;;;;6355717;22;20196;-82
2022/06/14 05:26:00;;;;;;;11.00;10.70;;;14.90;99.90;;;;;;6355583;22;20224;-81
2022/06/14 05:28:49;;;;;;;11.05;10.75;;;14.80;99.90;;;;;;6325207;22;20201;-81
2022/06/14 05:31:27;;;;;;;11.20;10.90;;;14.90;99.90;;;;;;6324371;22;20200;-81
2022/06/14 05:34:04;;;;;;;11.00;10.70;;;15.10;99.90;;;;;;6324327;22;20188;-81
2022/06/14 05:36:45;;;;;;;11.00;10.70;;;15.20;99.90;;;;;;6323998;22;20299;-81
2022/06/14 05:39:21;;;;;;;10.80;10.50;;;15.30;99.90;;;;;;6324532;22;20978;-81
2022/06/14 05:41:59;;;;;;;11.02;10.73;;;15.30;99.90;;;;;;6324537;22;20204;-80
2022/06/14 05:44:37;;;;;;;11.15;10.85;;;15.30;99.90;;;;;;6324286;22;20666;-81
2022/06/14 05:47:16;;;;;;;11.00;10.70;;;15.40;99.90;;;;;;6324443;22;20231;-81
2022/06/14 05:49:50;;;;;;;10.68;10.38;;;15.50;99.90;;;;;;6323773;22;20192;-80
2022/06/14 05:52:23;;;;;;;10.70;10.40;;;15.50;99.90;;;;;;6322759;22;20192;-81
2022/06/14 05:55:01;;;;;;;11.15;10.85;;;15.60;99.90;;;;;;6322800;22;20208;-81
2022/06/14 05:57:41;;;;;;;10.70;10.40;;;15.60;99.90;;;;;;6324473;22;20291;-81
2022/06/14 06:00:17;;;;;;;11.02;10.73;;;15.60;99.90;;;;;;6325261;22;20252;-82
2022/06/14 06:02:57;;;;;;;10.88;10.57;;;15.80;99.90;;;;;;6323109;22;20207;-80
2022/06/14 06:05:34;;;;;;;11.23;10.93;;;16.10;99.90;;;;;;6321253;22;20196;-80
2022/06/14 06:08:13;;;;;;;11.60;11.20;;;16.30;99.90;;;;;;6321597;22;20352;-81
2022/06/14 06:10:51;;;;;;;11.50;11.10;;;16.50;99.90;;;;;;6324371;22;20188;-81
2022/06/14 06:13:30;;;;;;;11.23;10.93;;;16.70;99.90;;;;;;6323037;22;20185;-83
2022/06/14 06:16:07;;;;;;;11.55;11.15;;;16.80;99.90;;;;;;6323089;22;20184;-83
2022/06/14 06:18:48;;;;;;;11.30;11.00;;;17.00;99.90;;;;;;6323624;22;20196;-82
2022/06/14 06:21:26;;;;;;;10.90;10.60;;;17.20;99.90;;;;;;6323604;22;20192;-84
2022/06/14 06:24:03;;;;;;;10.90;10.60;;;17.20;99.90;;;;;;6323909;22;20212;-81
2022/06/14 06:26:40;;;;;;;10.98;10.68;;;17.30;99.90;;;;;;6323925;22;20197;-82
2022/06/14 06:29:19;;;;;;;10.77;10.48;;;17.30;99.90;;;;;;6324261;22;20216;-81
2022/06/14 06:31:48;;;;;;;11.02;10.73;;;17.30;99.90;;;;;;6322886;22;20189;-81
2022/06/14 06:34:18;;;;;;;11.20;10.90;;;17.30;99.90;;;;;;6328047;22;20204;-81
2022/06/14 06:37:06;;;;;;;11.10;10.80;;;17.40;99.90;;;;;;6329014;22;20231;-82
2022/06/14 06:39:54;;;;;;;10.82;10.52;;;17.30;99.90;;;;;;6326529;22;20208;-81
2022/06/14 06:42:31;;;;;;;10.95;10.65;;;17.40;99.90;;;;;;6323440;22;20193;-81
2022/06/14 06:45:10;;;;;;;11.20;10.90;;;17.40;99.90;;;;;;6321125;22;20193;-80
2022/06/14 06:48:03;;;;;;;11.27;10.98;;;17.40;99.90;;;;;;6318481;22;20205;-81
2022/06/14 06:50:36;;;;;;;10.85;10.55;;;17.60;99.90;;;;;;6317511;22;20196;-79
2022/06/14 06:53:11;;;;;;;11.20;10.90;;;17.60;99.90;;;;;;6316578;22;20201;-80
2022/06/14 06:55:49;;;;;;;11.05;10.75;;;17.80;99.90;;;;;;6317518;22;20184;-81
2022/06/14 06:58:34;;;;;;;11.52;11.15;;;17.90;99.90;;;;;;6317221;22;20205;-80
2022/06/14 07:01:07;;;;;;;11.20;10.90;;;18.10;99.90;;;;;;6316551;22;20193;-80
2022/06/14 07:03:46;;;;;;;10.52;10.23;;;18.10;99.90;;;;;;6316953;22;20220;-81
2022/06/14 07:06:21;;;;;;;10.32;10.02;;;18.30;99.90;;;;;;6316160;22;20208;-81
2022/06/14 07:08:55;;;;;;;10.55;10.25;;;18.40;99.90;;;;;;6317684;22;20184;-81
2022/06/14 07:11:31;;;;;;;10.80;10.50;;;18.40;99.90;;;;;;6318300;22;20978;-82
2022/06/14 07:14:27;;;;;;;10.77;10.48;;;18.40;99.90;;;;;;6318460;22;20192;-84
2022/06/14 07:17:04;;;;;;;10.63;10.32;;;18.40;99.90;;;;;;6319259;22;20207;-83
2022/06/14 07:26:12;;;;;;;11.05;10.75;;;18.70;99.90;;;;;;6320803;22;20231;-82
2022/06/14 07:29:16;;;;;;;11.00;10.70;;;18.80;99.90;;;;;;6319939;22;20192;-81
2022/06/14 07:36:18;;;;;;;11.02;10.73;;;19.20;99.90;;;;;;6317585;22;20196;-81
2022/06/14 07:39:37;;;;;;;11.38;11.07;;;19.30;99.90;;;;;;6293630;22;20247;-80
2022/06/14 07:42:30;;;;;;;;;;;;;;;;;;;;;
2022/06/14 07:45:39;;;;;;;11.32;11.02;;;19.60;99.90;;;;;;6321463;22;20263;-82
2022/06/14 07:48:38;;;;;;;11.15;10.85;;;19.60;99.90;;;;;;6321367;22;20201;-82
2022/06/14 07:51:25;;;;;;;11.25;10.95;;;19.60;99.90;;;;;;6321901;22;20185;-82
2022/06/14 07:54:12;;;;;;;11.00;10.70;;;19.60;99.90;;;;;;6322905;22;20192;-82
2022/06/14 07:57:03;;;;;;;11.00;10.70;;;19.60;99.90;;;;;;6320606;22;20196;-80
2022/06/14 08:19:06;;;;;;;10.60;10.30;;;20.10;99.90;;;;;;5938288;23;20249;-81
2022/06/14 08:22:36;;;;;;;10.70;10.40;;;20.30;99.90;;;;;;5992268;23;20261;-83
2022/06/14 08:25:13;;;;;;;10.70;10.40;;;20.40;99.90;;;;;;6046965;23;20230;-83
2022/06/14 08:30:58;;;;;;;10.68;10.38;;;20.60;99.90;;;;;;6185756;22;20193;-84
2022/06/14 08:33:35;;;;;;;10.63;10.32;;;20.70;99.90;;;;;;6290765;22;20189;-83
2022/06/14 08:36:15;;;;;;;10.60;10.30;;;20.80;99.90;;;;;;6290393;22;20208;-84
2022/06/14 08:42:40;;;;;;;11.40;11.10;;;21.00;99.90;;;;;;6198711;23;20286;-83
2022/06/14 08:45:17;;;;;;;11.07;10.77;;;21.20;99.90;;;;;;6291898;22;20208;-84
2022/06/14 08:48:04;;;;;;;11.07;10.77;;;21.60;99.90;;;;;;6292944;22;20205;-84
2022/06/14 08:51:10;;;;;;;10.85;10.55;;;21.80;99.90;;;;;;6290943;22;20193;-85
2022/06/14 08:54:41;;;;;;;11.00;10.70;;;22.00;99.90;;;;;;6290695;22;20264;-85
2022/06/14 08:57:39;;;;;;;11.40;11.10;;;22.00;99.90;;;;;;6292614;22;20213;-85
2022/06/14 09:08:55;;;;;;;;;;;;;;;;;;;;;
2022/06/14 09:12:25;;;;;;;11.10;10.80;;;22.20;99.90;;;;;;6169131;23;20196;-82
2022/06/14 09:19:18;;;;;;;;;;;;;;;;;;;;;
2022/06/14 09:30:44;;;;;;;10.82;10.52;;;22.90;99.90;;;;;;6102577;23;20232;-83
2022/06/14 09:34:08;;;;;;;10.90;10.60;;;23.20;99.90;;;;;;6111512;23;20200;-83
2022/06/14 09:37:48;;;;;;;10.82;10.52;;;23.80;99.90;;;;;;6143000;23;20211;-83
2022/06/14 09:40:54;;;;;;;10.85;10.55;;;23.90;99.90;;;;;;6137769;23;20208;-83
2022/06/14 09:44:05;;;;;;;11.35;11.00;;;23.80;99.90;;;;;;6260773;22;20197;-84
2022/06/14 09:47:21;;;;;;;10.85;10.55;;;24.00;99.90;;;;;;6323618;22;20264;-83
2022/06/14 09:50:24;;;;;;;10.95;10.65;;;24.10;99.90;;;;;;6323546;22;20251;-83
2022/06/14 09:53:36;;;;;;;11.00;10.70;;;24.60;99.90;;;;;;6323623;22;20215;-83
2022/06/14 09:56:59;;;;;;;11.05;10.75;;;24.90;99.90;;;;;;6321746;22;20224;-84
2022/06/14 10:00:29;;;;;;;11.60;11.20;;;25.20;99.90;;;;;;6321208;22;20196;-83
2022/06/14 10:04:02;;;;;;;11.15;10.85;;;25.20;99.90;;;;;;6196470;22;20198;-83
2022/06/14 10:07:23;;;;;;;11.30;11.00;;;25.50;99.90;;;;;;6258976;22;20204;-85
2022/06/14 10:10:27;;;;;;;11.20;10.90;;;25.10;99.90;;;;;;6320622;22;20205;-84
2022/06/14 10:13:52;;;;;;;11.30;11.00;;;25.40;99.90;;;;;;6321315;22;20211;-84
2022/06/14 10:16:46;;;;;;;10.90;10.60;;;25.30;99.90;;;;;;6258899;22;20193;-85
2022/06/14 10:22:46;;;;;;;10.43;10.13;;;24.90;99.90;;;;;;6323289;22;20195;-85
2022/06/14 10:28:48;;;;;;;10.57;10.27;;;25.50;99.90;;;;;;6323414;22;20274;-85
2022/06/14 10:31:26;;;;;;;11.27;10.98;;;25.70;99.90;;;;;;6324968;22;20193;-85
2022/06/14 10:34:31;;;;;;;11.60;11.20;;;25.90;99.90;;;;;;6322922;22;20222;-85
2022/06/14 10:47:25;;;;;;;11.32;11.02;;;25.80;99.90;;;;;;6324136;22;20240;-85
2022/06/14 10:50:46;;;;;;;11.20;10.90;;;25.90;99.90;;;;;;6324662;22;20197;-85
2022/06/14 10:54:00;;;;;;;12.10;11.70;;;26.30;99.90;;;;;;6302407;22;20201;-82
2022/06/14 11:00:38;;;;;;;11.68;11.27;;;26.50;99.90;;;;;;6272658;22;20203;-86
2022/06/14 11:03:38;;;;;;;11.70;11.30;;;26.60;99.90;;;;;;6320230;22;20193;-85
2022/06/14 11:07:10;;;;;;;11.95;11.55;;;26.70;99.90;;;;;;6319691;22;20197;-85
2022/06/14 11:13:37;;;;;;;11.73;11.32;;;26.50;99.90;;;;;;6290089;22;20204;-86
2022/06/14 11:19:52;;;;;;;11.80;11.40;;;26.30;99.90;;;;;;6353873;22;20234;-80
2022/06/14 11:22:36;;;;;;;11.25;10.95;;;26.50;99.90;;;;;;6354339;22;20238;-79
2022/06/14 11:25:20;;;;;;;11.55;11.18;;;26.60;99.90;;;;;;6350155;22;20195;-79
2022/06/14 11:28:02;;;;;;;11.63;11.23;;;27.20;99.90;;;;;;6361779;22;20228;-81
2022/06/14 11:30:41;;;;;;;11.73;11.32;;;27.40;99.90;;;;;;6337710;22;20189;-82
2022/06/14 11:33:25;;;;;;;11.80;11.40;;;27.70;99.90;;;;;;6332774;22;20192;-81
2022/06/14 11:36:09;;;;;;;11.85;11.45;;;28.10;99.90;;;;;;6326379;22;20216;-81
2022/06/14 11:39:07;;;;;;;11.68;11.27;;;28.50;99.90;;;;;;6326870;22;20212;-81
2022/06/14 11:41:44;;;;;;;11.50;11.13;;;28.70;99.90;;;;;;6327319;22;20247;-81
2022/06/14 11:44:38;;;;;;;11.30;11.00;;;28.50;99.90;;;;;;6327154;22;20193;-82
2022/06/14 11:47:16;;;;;;;11.70;11.30;;;28.40;99.90;;;;;;6328622;22;20200;-81
2022/06/14 11:49:53;;;;;;;11.50;11.15;;;28.30;99.90;;;;;;6327842;22;20192;-82
2022/06/14 11:52:51;;;;;;;11.70;11.30;;;27.80;99.90;;;;;;6327791;22;20252;-82
2022/06/14 11:55:28;;;;;;;11.70;11.30;;;27.50;99.90;;;;;;6327389;22;20233;-82
2022/06/14 11:58:10;;;;;;;11.25;10.95;;;28.10;99.90;;;;;;6323959;22;20275;-81
2022/06/14 12:01:11;;;;;;;11.55;11.18;;;28.70;99.90;;;;;;6322561;22;20209;-82
2022/06/14 12:04:08;;;;;;;11.50;11.13;;;29.00;99.90;;;;;;6323405;22;20223;-82
2022/06/14 12:06:46;;;;;;;11.30;11.00;;;29.30;99.90;;;;;;6321812;22;20204;-82
2022/06/14 12:09:44;;;;;;;11.10;10.80;;;29.50;99.90;;;;;;6322719;22;20284;-82
2022/06/14 12:12:23;;;;;;;11.20;10.90;;;29.70;99.90;;;;;;6322893;22;20195;-82
2022/06/14 12:15:13;;;;;;;11.20;10.90;;;29.80;99.90;;;;;;6321181;22;20231;-81
2022/06/14 12:17:49;;;;;;;11.00;10.70;;;30.20;99.90;;;;;;6322304;22;20217;-81
2022/06/14 12:20:20;;;;;;;11.13;10.82;;;30.60;99.70;;;;;;6320526;22;20252;-82
2022/06/14 12:23:01;;;;;;;10.93;10.63;;;30.50;97.60;;;;;;6321238;22;20219;-81
2022/06/14 12:28:30;;;;;;;11.45;11.15;;;30.70;97.40;;;;;;6321100;22;20200;-80
2022/06/14 12:31:06;;;;;;;11.60;11.20;;;30.80;98.00;;;;;;6320584;22;20199;-80
2022/06/14 12:33:41;;;;;;;11.27;10.98;;;30.90;97.80;;;;;;6319807;22;20725;-81
2022/06/14 12:36:23;;;;;;;11.40;11.10;;;30.90;96.10;;;;;;6319447;22;20236;-81
2022/06/14 12:38:55;;;;;;;11.20;10.90;;;30.80;95.80;;;;;;6319706;22;20227;-81
2022/06/14 12:41:31;;;;;;;11.32;11.02;;;31.10;97.10;;;;;;6320573;22;20200;-81
2022/06/14 12:44:26;;;;;;;11.55;11.15;;;31.30;98.80;;;;;;6320722;22;20772;-80
2022/06/14 12:46:57;;;;;;;11.45;11.10;;;31.40;98.70;;;;;;6329865;22;20185;-81
2022/06/14 12:49:30;;;;;;;11.40;11.10;;;31.50;95.10;;;;;;6337218;22;20264;-81
2022/06/14 12:52:05;;;;;;;10.65;10.35;;;31.10;95.10;;;;;;6330170;22;20204;-81
2022/06/14 12:54:44;;;;;;;10.95;10.65;;;30.90;93.80;;;;;;6323412;22;20189;-77
2022/06/14 12:57:19;;;;;;;11.10;10.80;;;30.70;93.00;;;;;;6318415;22;20193;-80
2022/06/14 12:59:55;;;;;;;11.07;10.77;;;30.80;95.00;;;;;;6320877;22;20275;-80
2022/06/14 13:02:31;;;;;;;10.82;10.52;;;30.80;93.70;;;;;;6320932;22;20184;-80
2022/06/14 13:05:05;;;;;;;10.90;10.60;;;31.00;95.80;;;;;;6320401;22;20199;-80
2022/06/14 13:07:46;;;;;;;11.18;10.88;;;31.20;93.40;;;;;;6320062;22;20201;-80
2022/06/14 13:10:30;;;;;;;11.15;10.85;;;31.40;93.40;;;;;;6320812;22;20275;-80
2022/06/14 13:13:31;;;;;;;11.30;11.00;;;31.40;93.00;;;;;;6321406;22;20288;-80
2022/06/14 13:16:06;;;;;;;10.60;10.30;;;31.60;93.30;;;;;;6320951;22;20196;-80
2022/06/14 13:18:56;;;;;;;11.00;10.70;;;31.70;94.50;;;;;;6320765;22;20204;-80
2022/06/14 13:21:37;;;;;;;10.63;10.32;;;32.10;92.80;;;;;;6321358;22;20224;-80
2022/06/14 13:24:28;;;;;;;10.60;10.30;;;32.20;91.50;;;;;;6321837;22;20200;-80
2022/06/14 13:27:09;;;;;;;10.70;10.40;;;31.80;91.40;;;;;;6323431;22;20228;-81
2022/06/14 13:29:54;;;;;;;11.48;11.18;;;31.70;92.30;;;;;;6324011;22;20215;-82
2022/06/14 13:32:57;;;;;;;11.70;11.30;;;31.80;90.50;;;;;;6323561;22;20327;-80
2022/06/14 13:35:44;;;;;;;11.40;11.10;;;31.90;90.10;;;;;;6324666;22;20204;-80
2022/06/14 13:38:17;;;;;;;11.82;11.43;;;32.10;91.10;;;;;;6327262;22;20217;-80
2022/06/14 13:40:50;;;;;;;11.48;11.18;;;32.10;90.60;;;;;;6326231;22;20185;-79
2022/06/14 13:43:29;;;;;;;11.25;10.95;;;32.00;90.80;;;;;;6327389;22;20249;-79
2022/06/14 13:46:05;;;;;;;11.70;11.30;;;31.90;88.60;;;;;;6326995;22;20204;-80
2022/06/14 13:48:39;;;;;;;11.65;11.25;;;31.80;89.60;;;;;;6327151;22;20260;-79
2022/06/14 13:51:23;;;;;;;11.43;11.13;;;32.10;90.00;;;;;;6326750;22;20271;-79
2022/06/14 13:53:56;;;;;;;11.20;10.90;;;32.40;90.00;;;;;;6327692;22;20196;-79
2022/06/14 13:56:27;;;;;;;11.90;11.50;;;32.40;87.90;;;;;;6324611;22;20415;-80
2022/06/14 13:59:06;;;;;;;11.00;10.70;;;32.30;88.50;;;;;;6323462;22;20200;-79
2022/06/14 14:01:40;;;;;;;11.02;10.73;;;31.90;88.10;;;;;;6321778;22;20248;-79
2022/06/14 14:04:21;;;;;;;11.40;11.00;;;31.60;88.50;;;;;;6323383;22;20220;-81
2022/06/14 14:07:03;;;;;;;11.60;11.20;;;32.00;90.50;;;;;;6322250;22;20249;-80
2022/06/14 14:09:44;;;;;;;11.10;10.80;;;32.50;86.50;;;;;;6323001;22;20193;-80
2022/06/14 14:12:18;;;;;;;11.30;11.00;;;32.60;85.50;;;;;;6322830;22;20276;-80
2022/06/14 14:15:18;;;;;;;11.25;10.95;;;32.70;87.40;;;;;;6323113;22;20188;-81
2022/06/14 14:18:00;;;;;;;11.27;10.98;;;32.20;87.90;;;;;;6323391;22;20204;-80
2022/06/14 14:20:48;;;;;;;11.60;11.20;;;32.20;84.50;;;;;;6324468;22;20283;-80
2022/06/14 14:23:43;;;;;;;11.10;10.80;;;32.50;86.10;;;;;;6320386;22;20280;-79
2022/06/14 14:26:19;;;;;;;11.30;11.00;;;32.70;86.40;;;;;;6319699;22;20271;-79
2022/06/14 14:28:55;;;;;;;11.20;10.90;;;32.90;86.90;;;;;;6319795;22;20235;-79
2022/06/14 14:31:41;;;;;;;11.07;10.77;;;33.10;82.70;;;;;;6318891;22;20198;-80
2022/06/14 14:34:21;;;;;;;10.50;10.20;;;33.30;82.20;;;;;;6321946;22;20196;-79
2022/06/14 14:36:58;;;;;;;10.57;10.27;;;33.30;81.80;;;;;;6322849;22;20247;-81
2022/06/14 14:39:47;;;;;;;10.38;10.07;;;33.40;81.90;;;;;;6321986;22;20200;-81
2022/06/14 14:42:39;;;;;;;10.55;10.25;;;33.50;79.60;;;;;;6324026;22;20260;-80
2022/06/14 14:45:14;;;;;;;10.90;10.60;;;33.50;83.60;;;;;;6320683;22;20244;-79
2022/06/14 14:47:49;;;;;;;10.90;10.60;;;33.10;76.40;;;;;;6320660;22;20337;-79
2022/06/14 14:50:32;;;;;;;10.85;10.55;;;32.90;83.40;;;;;;6320977;22;20216;-79
2022/06/14 14:53:05;;;;;;;10.80;10.50;;;32.90;77.80;;;;;;6320529;22;20252;-80
2022/06/14 14:55:41;;;;;;;10.93;10.63;;;33.00;83.00;;;;;;6320173;22;20274;-78
2022/06/14 14:58:18;;;;;;;10.80;10.50;;;33.10;83.60;;;;;;6320966;22;20204;-79
2022/06/14 15:06:46;;;;;;;10.98;10.68;;;33.50;75.40;;;;;;6321373;22;20185;-80
2022/06/14 15:09:19;;;;;;;11.00;10.70;;;33.50;77.90;;;;;;6322459;22;20232;-80
2022/06/14 15:11:58;;;;;;;10.88;10.57;;;33.20;76.50;;;;;;6322429;22;20245;-80
2022/06/14 15:14:25;;;;;;;11.05;10.75;;;32.90;78.00;;;;;;6321773;22;20197;-81
2022/06/14 15:19:56;;;;;;;11.23;10.93;;;32.70;78.30;;;;;;6321523;22;20177;-81
2022/06/14 15:22:31;;;;;;;11.65;11.25;;;32.80;76.00;;;;;;6321172;22;20197;-80
2022/06/14 15:25:04;;;;;;;11.73;11.32;;;32.80;75.60;;;;;;6319475;22;20195;-79
2022/06/14 15:27:43;;;;;;;11.77;11.38;;;32.80;75.00;;;;;;6318906;22;20261;-80